Saturday, October 20, 2018, 10:13 PM EDT
Back to Local

KFIT, Fitchburg, Fitchburg Municipal Airport

Location: Leominster, MA, United States Lat: 42.552
Local Time: 10:13 PM EDT ( 2:13 GMT) Lon: -71.756
Time Zone: US/Eastern Elev: 347 ft

Show me the last for .
Show Decoded

2018-10-20 21:52 METAR KFIT 210152Z AUTO 01006KT 10SM OVC090 09/06 A2959 RMK AO2 SLP023 T00890061
                 =
2018-10-20 20:52 METAR KFIT 210052Z AUTO 00000KT 10SM CLR 08/05 A2959 RMK AO2 SLP020 T00780050 =
2018-10-20 19:52 METAR KFIT 202352Z AUTO 26004KT 10SM CLR 11/05 A2958 RMK AO2 SLP018 60000
                 T01060050 10167 20106 53003 =
2018-10-20 18:52 METAR KFIT 202252Z AUTO 25004KT 10SM CLR 11/06 A2958 RMK AO2 SLP017 T01110056 =
2018-10-20 17:52 METAR KFIT 202152Z AUTO 22004KT 10SM SCT100 12/07 A2956 RMK AO2 SLP010 T01220067
                 =
2018-10-20 16:52 METAR KFIT 202052Z AUTO 23006KT 10SM CLR 13/07 A2957 RMK AO2 RAE12 SLP015 P0000
                 60000 T01330067 56007 =
2018-10-20 15:52 METAR KFIT 201952Z AUTO 29009KT 10SM -RA OVC060 14/07 A2957 RMK AO2 RAB22E33B49
                 SLP015 P0000 T01390067 =
2018-10-20 14:52 METAR KFIT 201852Z AUTO 28009KT 10SM FEW045 FEW055 16/06 A2957 RMK AO2 SLP014
                 T01560056 =
2018-10-20 13:52 METAR KFIT 201752Z AUTO 28012G20KT 10SM SCT043 OVC060 16/06 A2959 RMK AO2 SLP022
                 T01560061 10167 20122 56021 =
2018-10-20 12:52 METAR KFIT 201652Z AUTO VRB06KT 10SM BKN040 OVC050 15/07 A2961 RMK AO2 SLP029
                 T01500072 =
2018-10-20 11:52 METAR KFIT 201552Z AUTO 24007KT 220V290 10SM SCT029 OVC038 14/08 A2963 RMK AO2
                 SLP034 T01440078 =
2018-10-20 10:52 METAR KFIT 201452Z AUTO 23008G16KT 200V270 10SM FEW028 OVC036 13/08 A2966 RMK
                 AO2 SLP043 T01330078 50001 =
2018-10-20 10:07 METAR KFIT 201407Z AUTO 24012G22KT 10SM SCT027 BKN047 OVC055 13/08 A2966 RMK AO2
                 T01330078 =
2018-10-20 09:52 METAR KFIT 201352Z AUTO 22008G16KT 10SM BKN025 BKN048 OVC080 13/08 A2966 RMK AO2
                 SLP046 T01280078 =
2018-10-20 08:52 METAR KFIT 201252Z AUTO 21010G19KT 10SM OVC024 12/07 A2966 RMK AO2 SLP046
                 T01220072 =
2018-10-20 08:23 METAR KFIT 201223Z AUTO 23008G18KT 200V280 10SM BKN025 BKN030 OVC060 12/07 A2966
                 RMK AO2 T01220072 =
2018-10-20 07:52 METAR KFIT 201152Z AUTO 22008G22KT 10SM SCT027 SCT050 OVC065 12/07 A2965 RMK AO2
                 SLP043 60000 T01220072 10128 20117 55016 =
2018-10-20 07:10 METAR KFIT 201110Z AUTO 19009G22KT 10SM BKN029 OVC065 12/07 A2965 RMK AO2
                 T01170067 =
2018-10-20 06:52 METAR KFIT 201052Z AUTO 20011G14KT 10SM FEW029 SCT043 OVC065 12/06 A2965 RMK AO2
                 SLP043 T01170061 =
2018-10-20 05:52 METAR KFIT 200952Z AUTO 19009G15KT 10SM OVC070 12/06 A2967 RMK AO2 SLP047
                 T01170056 =
2018-10-20 04:52 METAR KFIT 200852Z AUTO 20010KT 10SM OVC075 12/06 A2970 RMK AO2 RAB06E18 SLP058
                 P0000 60000 T01220056 56030 =
2018-10-20 03:52 METAR KFIT 200752Z AUTO 22009G22KT 190V250 10SM OVC100 12/06 A2973 RMK AO2
                 SLP067 T01220056 =
2018-10-20 02:52 METAR KFIT 200652Z AUTO 20011G18KT 10SM FEW120 12/05 A2976 RMK AO2 SLP077
                 T01220050 =
2018-10-20 01:52 METAR KFIT 200552Z AUTO 21010G19KT 10SM CLR 12/05 A2979 RMK AO2 SLP088 T01220050
                 10122 20106 58027 =
2018-10-20 00:52 METAR KFIT 200452Z AUTO 22008G15KT 10SM CLR 12/04 A2983 RMK AO2 SLP103 T01170044
                 401561028 =
2018-10-19 23:52 METAR KFIT 200352Z AUTO 21011G18KT 180V250 10SM CLR 12/03 A2985 RMK AO2 SLP110
                 T01170033 =
2018-10-19 22:52 METAR KFIT 200252Z AUTO 22007G20KT 10SM CLR 12/01 A2987 RMK AO2 SLP116 T01170011
                 58028 =

Support USWX by starting your Amazon purchase here.